sensor_id;sensor_type;location;lat;lon;timestamp;temperature;humidity
15543;DHT22;7873;52.230;12.856;2023-11-21T00:00:39;27.60;55.20
15543;DHT22;7873;52.230;12.856;2023-11-21T00:03:05;27.90;56.60
15543;DHT22;7873;52.230;12.856;2023-11-21T00:05:34;27.60;55.30
15543;DHT22;7873;52.230;12.856;2023-11-21T00:08:00;27.60;55.70
15543;DHT22;7873;52.230;12.856;2023-11-21T00:10:27;27.30;55.40
15543;DHT22;7873;52.230;12.856;2023-11-21T00:12:53;27.80;57.10
15543;DHT22;7873;52.230;12.856;2023-11-21T00:15:20;27.40;56.30
15543;DHT22;7873;52.230;12.856;2023-11-21T00:17:47;26.90;55.30
15543;DHT22;7873;52.230;12.856;2023-11-21T00:20:13;27.30;56.40
15543;DHT22;7873;52.230;12.856;2023-11-21T00:22:41;27.20;56.10
15543;DHT22;7873;52.230;12.856;2023-11-21T00:25:08;27.50;56.90
15543;DHT22;7873;52.230;12.856;2023-11-21T00:27:35;27.50;55.70
15543;DHT22;7873;52.230;12.856;2023-11-21T00:30:02;27.20;56.40
15543;DHT22;7873;52.230;12.856;2023-11-21T00:32:29;27.60;56.80
15543;DHT22;7873;52.230;12.856;2023-11-21T00:34:56;27.50;57.80
15543;DHT22;7873;52.230;12.856;2023-11-21T00:37:22;27.10;56.60
15543;DHT22;7873;52.230;12.856;2023-11-21T00:39:50;27.10;57.00
15543;DHT22;7873;52.230;12.856;2023-11-21T00:42:17;27.10;57.40
15543;DHT22;7873;52.230;12.856;2023-11-21T00:44:43;27.40;58.20
15543;DHT22;7873;52.230;12.856;2023-11-21T00:47:10;26.80;57.10
15543;DHT22;7873;52.230;12.856;2023-11-21T00:49:36;26.70;57.00
15543;DHT22;7873;52.230;12.856;2023-11-21T00:52:04;26.60;57.50
15543;DHT22;7873;52.230;12.856;2023-11-21T00:54:31;27.10;57.80
15543;DHT22;7873;52.230;12.856;2023-11-21T00:57:00;26.80;57.30
15543;DHT22;7873;52.230;12.856;2023-11-21T00:59:26;26.60;57.70
15543;DHT22;7873;52.230;12.856;2023-11-21T01:01:53;26.70;57.60
15543;DHT22;7873;52.230;12.856;2023-11-21T01:04:19;27.00;58.30
15543;DHT22;7873;52.230;12.856;2023-11-21T01:06:46;26.90;58.10
15543;DHT22;7873;52.230;12.856;2023-11-21T01:09:12;26.60;57.70
15543;DHT22;7873;52.230;12.856;2023-11-21T01:11:39;26.70;58.00
15543;DHT22;7873;52.230;12.856;2023-11-21T01:14:06;26.90;59.00
15543;DHT22;7873;52.230;12.856;2023-11-21T01:16:34;26.70;57.90
15543;DHT22;7873;52.230;12.856;2023-11-21T01:19:01;26.50;57.80
15543;DHT22;7873;52.230;12.856;2023-11-21T01:21:27;26.60;57.70
15543;DHT22;7873;52.230;12.856;2023-11-21T01:23:54;26.70;58.70
15543;DHT22;7873;52.230;12.856;2023-11-21T01:26:21;26.40;57.80
15543;DHT22;7873;52.230;12.856;2023-11-21T01:28:47;26.60;58.40
15543;DHT22;7873;52.230;12.856;2023-11-21T01:31:15;26.60;58.10
15543;DHT22;7873;52.230;12.856;2023-11-21T01:33:42;26.80;59.40
15543;DHT22;7873;52.230;12.856;2023-11-21T01:36:09;26.10;58.20
15543;DHT22;7873;52.230;12.856;2023-11-21T01:38:36;26.60;57.10
15543;DHT22;7873;52.230;12.856;2023-11-21T01:41:02;26.10;58.40
15543;DHT22;7873;52.230;12.856;2023-11-21T01:43:29;26.60;59.70
15543;DHT22;7873;52.230;12.856;2023-11-21T01:45:56;26.10;58.50
15543;DHT22;7873;52.230;12.856;2023-11-21T01:48:24;26.00;58.50
15543;DHT22;7873;52.230;12.856;2023-11-21T01:50:51;26.10;58.80
15543;DHT22;7873;52.230;12.856;2023-11-21T01:53:18;26.50;60.40
15543;DHT22;7873;52.230;12.856;2023-11-21T01:55:45;26.30;59.20
15543;DHT22;7873;52.230;12.856;2023-11-21T01:58:12;26.10;59.00
15543;DHT22;7873;52.230;12.856;2023-11-21T02:00:39;25.80;58.80
15543;DHT22;7873;52.230;12.856;2023-11-21T02:03:05;26.50;60.30
15543;DHT22;7873;52.230;12.856;2023-11-21T02:05:34;25.80;59.20
15543;DHT22;7873;52.230;12.856;2023-11-21T02:08:01;25.60;59.00
15543;DHT22;7873;52.230;12.856;2023-11-21T02:10:28;25.80;59.10
15543;DHT22;7873;52.230;12.856;2023-11-21T02:12:56;26.20;60.20
15543;DHT22;7873;52.230;12.856;2023-11-21T02:15:23;25.70;59.50
15543;DHT22;7873;52.230;12.856;2023-11-21T02:17:53;26.30;59.50
15543;DHT22;7873;52.230;12.856;2023-11-21T02:20:20;25.80;59.20
15543;DHT22;7873;52.230;12.856;2023-11-21T02:22:51;26.20;60.60
15543;DHT22;7873;52.230;12.856;2023-11-21T02:25:21;26.20;61.20
15543;DHT22;7873;52.230;12.856;2023-11-21T02:27:48;25.40;59.80
15543;DHT22;7873;52.230;12.856;2023-11-21T02:30:14;25.60;59.20
15543;DHT22;7873;52.230;12.856;2023-11-21T02:32:41;26.10;59.50
15543;DHT22;7873;52.230;12.856;2023-11-21T02:35:08;26.00;61.00
15543;DHT22;7873;52.230;12.856;2023-11-21T02:37:34;25.50;59.20
15543;DHT22;7873;52.230;12.856;2023-11-21T02:40:03;25.60;59.30
15543;DHT22;7873;52.230;12.856;2023-11-21T02:42:31;26.40;59.90
15543;DHT22;7873;52.230;12.856;2023-11-21T02:44:58;25.80;60.90
15543;DHT22;7873;52.230;12.856;2023-11-21T02:47:24;25.60;60.50
15543;DHT22;7873;52.230;12.856;2023-11-21T02:49:50;25.40;59.30
15543;DHT22;7873;52.230;12.856;2023-11-21T02:52:17;25.10;59.40
15543;DHT22;7873;52.230;12.856;2023-11-21T02:54:44;25.80;60.90
15543;DHT22;7873;52.230;12.856;2023-11-21T02:57:12;25.60;59.80
15543;DHT22;7873;52.230;12.856;2023-11-21T02:59:38;25.90;60.10
15543;DHT22;7873;52.230;12.856;2023-11-21T03:02:05;25.40;59.60
15543;DHT22;7873;52.230;12.856;2023-11-21T03:04:33;25.70;60.80
15543;DHT22;7873;52.230;12.856;2023-11-21T03:07:00;25.40;59.90
15543;DHT22;7873;52.230;12.856;2023-11-21T03:09:27;25.30;59.50
15543;DHT22;7873;52.230;12.856;2023-11-21T03:11:53;25.30;60.00
15543;DHT22;7873;52.230;12.856;2023-11-21T03:14:21;25.70;61.30
15543;DHT22;7873;52.230;12.856;2023-11-21T03:16:47;25.10;59.70
15543;DHT22;7873;52.230;12.856;2023-11-21T03:19:14;25.50;60.30
15543;DHT22;7873;52.230;12.856;2023-11-21T03:21:41;25.10;59.60
15543;DHT22;7873;52.230;12.856;2023-11-21T03:24:07;25.70;61.90
15543;DHT22;7873;52.230;12.856;2023-11-21T03:26:34;26.10;60.40
15543;DHT22;7873;52.230;12.856;2023-11-21T03:29:02;25.90;60.30
15543;DHT22;7873;52.230;12.856;2023-11-21T03:31:31;25.30;60.30
15543;DHT22;7873;52.230;12.856;2023-11-21T03:33:57;25.70;61.80
15543;DHT22;7873;52.230;12.856;2023-11-21T03:36:24;25.20;60.00
15543;DHT22;7873;52.230;12.856;2023-11-21T03:38:51;25.00;59.90
15543;DHT22;7873;52.230;12.856;2023-11-21T03:41:17;25.00;60.20
15543;DHT22;7873;52.230;12.856;2023-11-21T03:43:43;25.50;62.40
15543;DHT22;7873;52.230;12.856;2023-11-21T03:46:10;25.10;60.90
15543;DHT22;7873;52.230;12.856;2023-11-21T03:48:38;25.20;60.60
15543;DHT22;7873;52.230;12.856;2023-11-21T03:51:05;25.00;60.90
15543;DHT22;7873;52.230;12.856;2023-11-21T03:53:32;25.60;61.50
15543;DHT22;7873;52.230;12.856;2023-11-21T03:55:58;25.00;60.00
15543;DHT22;7873;52.230;12.856;2023-11-21T03:58:26;25.20;59.50
15543;DHT22;7873;52.230;12.856;2023-11-21T04:00:53;25.20;59.20
15543;DHT22;7873;52.230;12.856;2023-11-21T04:03:19;25.70;60.60
15543;DHT22;7873;52.230;12.856;2023-11-21T04:05:47;25.40;59.80
15543;DHT22;7873;52.230;12.856;2023-11-21T04:08:13;25.40;58.90
15543;DHT22;7873;52.230;12.856;2023-11-21T04:10:40;25.50;59.00
15543;DHT22;7873;52.230;12.856;2023-11-21T04:13:07;25.90;60.40
15543;DHT22;7873;52.230;12.856;2023-11-21T04:15:33;25.50;58.40
15543;DHT22;7873;52.230;12.856;2023-11-21T04:18:00;25.60;59.40
15543;DHT22;7873;52.230;12.856;2023-11-21T04:20:27;25.50;59.10
15543;DHT22;7873;52.230;12.856;2023-11-21T04:22:54;25.70;60.20
15543;DHT22;7873;52.230;12.856;2023-11-21T04:25:21;25.50;60.20
15543;DHT22;7873;52.230;12.856;2023-11-21T04:27:48;25.20;58.80
15543;DHT22;7873;52.230;12.856;2023-11-21T04:30:15;25.10;59.40
15543;DHT22;7873;52.230;12.856;2023-11-21T04:35:09;25.60;54.20
15543;DHT22;7873;52.230;12.856;2023-11-21T04:37:35;25.10;59.80
15543;DHT22;7873;52.230;12.856;2023-11-21T04:40:03;25.20;58.80
15543;DHT22;7873;52.230;12.856;2023-11-21T04:42:34;25.60;57.40
15543;DHT22;7873;52.230;12.856;2023-11-21T04:45:01;25.20;58.40
15543;DHT22;7873;52.230;12.856;2023-11-21T04:47:30;24.60;54.90
15543;DHT22;7873;52.230;12.856;2023-11-21T04:49:56;24.40;55.20
15543;DHT22;7873;52.230;12.856;2023-11-21T04:52:23;24.20;55.80
15543;DHT22;7873;52.230;12.856;2023-11-21T04:54:49;25.00;58.30
15543;DHT22;7873;52.230;12.856;2023-11-21T04:57:17;24.60;57.70
15543;DHT22;7873;52.230;12.856;2023-11-21T04:59:44;24.80;57.30
15543;DHT22;7873;52.230;12.856;2023-11-21T05:02:10;24.80;57.20
15543;DHT22;7873;52.230;12.856;2023-11-21T05:04:37;25.10;59.00
15543;DHT22;7873;52.230;12.856;2023-11-21T05:07:04;24.70;57.60
15543;DHT22;7873;52.230;12.856;2023-11-21T05:09:30;25.00;57.90
15543;DHT22;7873;52.230;12.856;2023-11-21T05:11:57;24.90;57.30
15543;DHT22;7873;52.230;12.856;2023-11-21T05:14:26;25.40;58.70
15543;DHT22;7873;52.230;12.856;2023-11-21T05:16:52;24.40;57.80
15543;DHT22;7873;52.230;12.856;2023-11-21T05:19:18;24.90;57.80
15543;DHT22;7873;52.230;12.856;2023-11-21T05:21:46;24.90;57.70
15543;DHT22;7873;52.230;12.856;2023-11-21T05:24:12;25.40;58.80
15543;DHT22;7873;52.230;12.856;2023-11-21T05:26:39;25.40;58.00
15543;DHT22;7873;52.230;12.856;2023-11-21T05:29:05;25.00;57.40
15543;DHT22;7873;52.230;12.856;2023-11-21T05:31:34;24.90;57.50
15543;DHT22;7873;52.230;12.856;2023-11-21T05:34:00;25.40;59.10
15543;DHT22;7873;52.230;12.856;2023-11-21T05:36:27;24.90;54.30
15543;DHT22;7873;52.230;12.856;2023-11-21T05:38:53;24.20;51.30
15543;DHT22;7873;52.230;12.856;2023-11-21T05:41:20;23.30;52.70
15543;DHT22;7873;52.230;12.856;2023-11-21T05:43:46;22.50;60.90
15543;DHT22;7873;52.230;12.856;2023-11-21T05:46:13;21.70;65.70
15543;DHT22;7873;52.230;12.856;2023-11-21T05:48:41;21.70;68.90
15543;DHT22;7873;52.230;12.856;2023-11-21T05:51:07;20.80;70.90
15543;DHT22;7873;52.230;12.856;2023-11-21T05:53:34;21.00;75.10
15543;DHT22;7873;52.230;12.856;2023-11-21T05:56:00;21.80;70.30
15543;DHT22;7873;52.230;12.856;2023-11-21T05:58:29;22.10;70.80
15543;DHT22;7873;52.230;12.856;2023-11-21T06:00:55;22.20;67.50
15543;DHT22;7873;52.230;12.856;2023-11-21T06:03:22;22.60;71.00
15543;DHT22;7873;52.230;12.856;2023-11-21T06:05:50;22.10;69.10
15543;DHT22;7873;52.230;12.856;2023-11-21T06:08:17;22.10;67.00
15543;DHT22;7873;52.230;12.856;2023-11-21T06:10:44;22.20;66.20
15543;DHT22;7873;52.230;12.856;2023-11-21T06:13:10;23.00;71.70
15543;DHT22;7873;52.230;12.856;2023-11-21T06:15:37;22.60;67.60
15543;DHT22;7873;52.230;12.856;2023-11-21T06:18:03;22.70;64.60
15543;DHT22;7873;52.230;12.856;2023-11-21T06:20:31;23.30;63.80
15543;DHT22;7873;52.230;12.856;2023-11-21T06:22:59;23.20;70.30
15543;DHT22;7873;52.230;12.856;2023-11-21T06:25:28;23.30;68.10
15543;DHT22;7873;52.230;12.856;2023-11-21T06:27:58;23.40;63.30
15543;DHT22;7873;52.230;12.856;2023-11-21T06:30:24;22.70;63.70
15543;DHT22;7873;52.230;12.856;2023-11-21T06:32:51;23.30;67.40
15543;DHT22;7873;52.230;12.856;2023-11-21T06:35:17;22.90;65.90
15543;DHT22;7873;52.230;12.856;2023-11-21T06:37:45;22.70;64.30
15543;DHT22;7873;52.230;12.856;2023-11-21T06:40:14;22.90;63.90
15543;DHT22;7873;52.230;12.856;2023-11-21T06:42:41;23.40;64.20
15543;DHT22;7873;52.230;12.856;2023-11-21T06:45:09;23.30;67.50
15543;DHT22;7873;52.230;12.856;2023-11-21T06:47:36;22.90;65.90
15543;DHT22;7873;52.230;12.856;2023-11-21T06:50:03;22.90;67.20
15543;DHT22;7873;52.230;12.856;2023-11-21T06:52:30;23.30;65.10
15543;DHT22;7873;52.230;12.856;2023-11-21T06:54:56;23.20;68.50
15543;DHT22;7873;52.230;12.856;2023-11-21T06:57:24;22.90;67.30
15543;DHT22;7873;52.230;12.856;2023-11-21T06:59:51;22.70;66.10
15543;DHT22;7873;52.230;12.856;2023-11-21T07:02:17;22.70;65.70
15543;DHT22;7873;52.230;12.856;2023-11-21T07:04:44;23.20;68.40
15543;DHT22;7873;52.230;12.856;2023-11-21T07:07:11;22.80;66.80
15543;DHT22;7873;52.230;12.856;2023-11-21T07:09:38;22.80;66.30
15543;DHT22;7873;52.230;12.856;2023-11-21T07:12:05;23.30;67.40
15543;DHT22;7873;52.230;12.856;2023-11-21T07:14:34;23.30;68.70
15543;DHT22;7873;52.230;12.856;2023-11-21T07:17:00;22.90;67.20
15543;DHT22;7873;52.230;12.856;2023-11-21T07:19:27;22.60;65.70
15543;DHT22;7873;52.230;12.856;2023-11-21T07:21:54;22.70;66.30
15543;DHT22;7873;52.230;12.856;2023-11-21T07:24:20;23.30;68.50
15543;DHT22;7873;52.230;12.856;2023-11-21T07:26:48;22.80;65.60
15543;DHT22;7873;52.230;12.856;2023-11-21T07:29:14;22.80;65.60
15543;DHT22;7873;52.230;12.856;2023-11-21T07:31:42;22.80;66.60
15543;DHT22;7873;52.230;12.856;2023-11-21T07:34:09;23.20;67.60
15543;DHT22;7873;52.230;12.856;2023-11-21T07:36:37;22.80;66.50
15543;DHT22;7873;52.230;12.856;2023-11-21T07:39:03;22.70;65.60
15543;DHT22;7873;52.230;12.856;2023-11-21T07:41:31;23.30;66.30
15543;DHT22;7873;52.230;12.856;2023-11-21T07:43:58;23.30;68.20
15543;DHT22;7873;52.230;12.856;2023-11-21T07:46:25;22.80;66.80
15543;DHT22;7873;52.230;12.856;2023-11-21T07:48:53;22.60;66.70
15543;DHT22;7873;52.230;12.856;2023-11-21T07:51:20;22.50;66.70
15543;DHT22;7873;52.230;12.856;2023-11-21T07:53:47;23.20;68.10
15543;DHT22;7873;52.230;12.856;2023-11-21T07:56:13;22.80;66.60
15543;DHT22;7873;52.230;12.856;2023-11-21T07:58:40;22.80;67.10
15543;DHT22;7873;52.230;12.856;2023-11-21T08:01:06;22.90;66.80
15543;DHT22;7873;52.230;12.856;2023-11-21T08:03:33;23.20;69.50
15543;DHT22;7873;52.230;12.856;2023-11-21T08:06:01;22.70;67.60
15543;DHT22;7873;52.230;12.856;2023-11-21T08:08:28;22.50;68.20
15543;DHT22;7873;52.230;12.856;2023-11-21T08:10:55;22.60;67.50
15543;DHT22;7873;52.230;12.856;2023-11-21T08:13:22;23.20;69.20
15543;DHT22;7873;52.230;12.856;2023-11-21T08:15:49;22.80;68.00
15543;DHT22;7873;52.230;12.856;2023-11-21T08:18:15;22.60;68.50
15543;DHT22;7873;52.230;12.856;2023-11-21T08:20:43;22.60;68.90
15543;DHT22;7873;52.230;12.856;2023-11-21T08:23:14;23.10;69.70
15543;DHT22;7873;52.230;12.856;2023-11-21T08:25:42;22.70;68.40
15543;DHT22;7873;52.230;12.856;2023-11-21T08:28:09;22.60;69.20
15543;DHT22;7873;52.230;12.856;2023-11-21T08:30:35;22.60;69.60
15543;DHT22;7873;52.230;12.856;2023-11-21T08:33:02;23.10;69.90
15543;DHT22;7873;52.230;12.856;2023-11-21T08:35:29;22.80;69.20
15543;DHT22;7873;52.230;12.856;2023-11-21T08:37:55;22.60;67.80
15543;DHT22;7873;52.230;12.856;2023-11-21T08:40:23;22.60;67.30
15543;DHT22;7873;52.230;12.856;2023-11-21T08:42:50;23.00;69.20
15543;DHT22;7873;52.230;12.856;2023-11-21T08:45:18;22.70;68.70
15543;DHT22;7873;52.230;12.856;2023-11-21T08:47:44;22.40;68.80
15543;DHT22;7873;52.230;12.856;2023-11-21T08:50:12;22.20;68.90
15543;DHT22;7873;52.230;12.856;2023-11-21T08:52:38;22.70;69.30
15543;DHT22;7873;52.230;12.856;2023-11-21T08:55:06;23.00;69.90
15543;DHT22;7873;52.230;12.856;2023-11-21T08:57:35;23.10;67.50
15543;DHT22;7873;52.230;12.856;2023-11-21T09:00:02;22.70;69.60
15543;DHT22;7873;52.230;12.856;2023-11-21T09:02:30;22.60;69.50
15543;DHT22;7873;52.230;12.856;2023-11-21T09:04:57;23.00;70.90
15543;DHT22;7873;52.230;12.856;2023-11-21T09:07:24;22.70;70.80
15543;DHT22;7873;52.230;12.856;2023-11-21T09:09:50;22.70;70.60
15543;DHT22;7873;52.230;12.856;2023-11-21T09:12:17;22.70;71.00
15543;DHT22;7873;52.230;12.856;2023-11-21T09:14:45;23.10;71.00
15543;DHT22;7873;52.230;12.856;2023-11-21T09:17:12;22.40;69.50
15543;DHT22;7873;52.230;12.856;2023-11-21T09:19:39;23.20;70.20
15543;DHT22;7873;52.230;12.856;2023-11-21T09:22:06;22.60;70.70
15543;DHT22;7873;52.230;12.856;2023-11-21T09:24:33;23.00;70.70
15543;DHT22;7873;52.230;12.856;2023-11-21T09:27:00;22.90;69.00
15543;DHT22;7873;52.230;12.856;2023-11-21T09:29:27;22.60;69.90
15543;DHT22;7873;52.230;12.856;2023-11-21T09:31:55;22.50;70.50
15543;DHT22;7873;52.230;12.856;2023-11-21T09:34:24;23.00;70.60
15543;DHT22;7873;52.230;12.856;2023-11-21T09:36:51;22.50;70.50
15543;DHT22;7873;52.230;12.856;2023-11-21T09:39:17;22.50;72.70
15543;DHT22;7873;52.230;12.856;2023-11-21T09:41:44;22.40;74.50
15543;DHT22;7873;52.230;12.856;2023-11-21T09:44:17;22.90;72.50
15543;DHT22;7873;52.230;12.856;2023-11-21T09:46:45;22.30;71.40
15543;DHT22;7873;52.230;12.856;2023-11-21T09:49:16;22.30;71.90
15543;DHT22;7873;52.230;12.856;2023-11-21T09:51:49;22.30;73.50
15543;DHT22;7873;52.230;12.856;2023-11-21T09:54:18;22.80;70.50
15543;DHT22;7873;52.230;12.856;2023-11-21T09:56:46;22.90;70.10
15543;DHT22;7873;52.230;12.856;2023-11-21T09:59:13;22.50;70.10
15543;DHT22;7873;52.230;12.856;2023-11-21T10:01:41;22.30;70.60
15543;DHT22;7873;52.230;12.856;2023-11-21T10:04:08;22.80;71.40
15543;DHT22;7873;52.230;12.856;2023-11-21T10:06:38;22.30;70.00
15543;DHT22;7873;52.230;12.856;2023-11-21T10:09:07;22.40;71.10
15543;DHT22;7873;52.230;12.856;2023-11-21T10:11:37;22.30;70.70
15543;DHT22;7873;52.230;12.856;2023-11-21T10:14:06;22.80;71.60
15543;DHT22;7873;52.230;12.856;2023-11-21T10:16:38;22.40;70.00
15543;DHT22;7873;52.230;12.856;2023-11-21T10:19:05;22.40;70.40
15543;DHT22;7873;52.230;12.856;2023-11-21T10:21:32;22.50;72.00
15543;DHT22;7873;52.230;12.856;2023-11-21T10:24:00;22.80;70.80
15543;DHT22;7873;52.230;12.856;2023-11-21T10:26:28;22.80;68.50
15543;DHT22;7873;52.230;12.856;2023-11-21T10:28:57;22.20;70.20
15543;DHT22;7873;52.230;12.856;2023-11-21T10:31:24;22.40;69.90
15543;DHT22;7873;52.230;12.856;2023-11-21T10:33:52;22.80;68.10
15543;DHT22;7873;52.230;12.856;2023-11-21T10:36:25;22.30;68.40
15543;DHT22;7873;52.230;12.856;2023-11-21T10:38:53;22.80;58.40
15543;DHT22;7873;52.230;12.856;2023-11-21T10:41:21;22.30;72.60
15543;DHT22;7873;52.230;12.856;2023-11-21T10:43:47;22.80;71.80
15543;DHT22;7873;52.230;12.856;2023-11-21T10:46:14;22.30;71.30
15543;DHT22;7873;52.230;12.856;2023-11-21T10:48:41;22.20;69.90
15543;DHT22;7873;52.230;12.856;2023-11-21T10:51:09;22.20;71.40
15543;DHT22;7873;52.230;12.856;2023-11-21T10:53:38;22.80;71.50
15543;DHT22;7873;52.230;12.856;2023-11-21T10:56:06;22.30;70.00
15543;DHT22;7873;52.230;12.856;2023-11-21T10:58:36;22.70;68.70
15543;DHT22;7873;52.230;12.856;2023-11-21T11:01:05;22.10;71.00
15543;DHT22;7873;52.230;12.856;2023-11-21T11:03:33;22.60;72.40
15543;DHT22;7873;52.230;12.856;2023-11-21T11:06:02;22.00;71.00
15543;DHT22;7873;52.230;12.856;2023-11-21T11:08:33;22.70;71.00
15543;DHT22;7873;52.230;12.856;2023-11-21T11:11:01;22.20;70.10
15543;DHT22;7873;52.230;12.856;2023-11-21T11:13:27;22.70;72.00
15543;DHT22;7873;52.230;12.856;2023-11-21T11:15:58;22.30;70.90
15543;DHT22;7873;52.230;12.856;2023-11-21T11:18:26;22.20;70.00
15543;DHT22;7873;52.230;12.856;2023-11-21T11:20:53;21.90;70.20
15543;DHT22;7873;52.230;12.856;2023-11-21T11:23:27;22.60;72.50
15543;DHT22;7873;52.230;12.856;2023-11-21T11:26:07;22.10;70.10
15543;DHT22;7873;52.230;12.856;2023-11-21T11:28:43;22.80;62.10
15543;DHT22;7873;52.230;12.856;2023-11-21T11:31:21;22.20;71.10
15543;DHT22;7873;52.230;12.856;2023-11-21T11:34:01;22.60;72.20
15543;DHT22;7873;52.230;12.856;2023-11-21T11:36:40;22.70;70.50
15543;DHT22;7873;52.230;12.856;2023-11-21T11:39:29;22.60;70.70
15543;DHT22;7873;52.230;12.856;2023-11-21T11:41:56;22.70;62.20
15543;DHT22;7873;52.230;12.856;2023-11-21T11:47:19;22.60;60.10
15543;DHT22;7873;52.230;12.856;2023-11-21T11:49:56;22.00;73.20
15543;DHT22;7873;52.230;12.856;2023-11-21T11:52:36;22.70;63.70
15543;DHT22;7873;52.230;12.856;2023-11-21T11:55:07;22.40;73.20
15543;DHT22;7873;52.230;12.856;2023-11-21T11:57:38;22.90;73.40
15543;DHT22;7873;52.230;12.856;2023-11-21T12:00:16;22.00;72.00
15543;DHT22;7873;52.230;12.856;2023-11-21T12:02:47;22.50;74.20
15543;DHT22;7873;52.230;12.856;2023-11-21T12:05:14;22.00;73.90
15543;DHT22;7873;52.230;12.856;2023-11-21T12:07:46;22.10;71.90
15543;DHT22;7873;52.230;12.856;2023-11-21T12:10:15;22.70;63.40
15543;DHT22;7873;52.230;12.856;2023-11-21T12:12:47;22.50;71.90
15543;DHT22;7873;52.230;12.856;2023-11-21T12:15:14;22.60;63.50
15543;DHT22;7873;52.230;12.856;2023-11-21T12:17:41;22.10;72.00
15543;DHT22;7873;52.230;12.856;2023-11-21T12:20:11;22.10;71.70
15543;DHT22;7873;52.230;12.856;2023-11-21T12:22:43;22.60;70.20
15543;DHT22;7873;52.230;12.856;2023-11-21T12:25:13;22.50;63.20
15543;DHT22;7873;52.230;12.856;2023-11-21T12:27:42;22.00;71.00
15543;DHT22;7873;52.230;12.856;2023-11-21T12:30:10;22.10;71.50
15543;DHT22;7873;52.230;12.856;2023-11-21T12:32:40;22.60;68.50
15543;DHT22;7873;52.230;12.856;2023-11-21T12:35:07;22.50;72.90
15543;DHT22;7873;52.230;12.856;2023-11-21T12:37:36;22.70;70.30
15543;DHT22;7873;52.230;12.856;2023-11-21T12:40:04;22.10;71.50
15543;DHT22;7873;52.230;12.856;2023-11-21T12:42:33;22.70;70.00
15543;DHT22;7873;52.230;12.856;2023-11-21T12:45:10;22.50;71.90
15543;DHT22;7873;52.230;12.856;2023-11-21T12:47:46;22.70;61.50
15543;DHT22;7873;52.230;12.856;2023-11-21T12:50:13;22.00;70.70
15543;DHT22;7873;52.230;12.856;2023-11-21T12:52:45;22.10;71.00
15543;DHT22;7873;52.230;12.856;2023-11-21T12:55:13;22.50;62.90
15543;DHT22;7873;52.230;12.856;2023-11-21T12:57:42;22.20;71.60
15543;DHT22;7873;52.230;12.856;2023-11-21T13:00:10;22.10;71.50
15543;DHT22;7873;52.230;12.856;2023-11-21T13:02:50;22.60;71.70
15543;DHT22;7873;52.230;12.856;2023-11-21T13:05:22;22.10;72.30
15543;DHT22;7873;52.230;12.856;2023-11-21T13:07:51;22.60;71.20
15543;DHT22;7873;52.230;12.856;2023-11-21T13:10:19;22.60;72.50
15543;DHT22;7873;52.230;12.856;2023-11-21T13:12:51;22.50;72.90
15543;DHT22;7873;52.230;12.856;2023-11-21T13:15:18;22.60;72.00
15543;DHT22;7873;52.230;12.856;2023-11-21T13:17:44;22.60;72.90
15543;DHT22;7873;52.230;12.856;2023-11-21T13:20:11;22.10;72.50
15543;DHT22;7873;52.230;12.856;2023-11-21T13:22:44;22.60;71.50
15543;DHT22;7873;52.230;12.856;2023-11-21T13:25:15;22.50;73.70
15543;DHT22;7873;52.230;12.856;2023-11-21T13:27:43;22.70;72.80
15543;DHT22;7873;52.230;12.856;2023-11-21T13:30:11;22.50;73.00
15543;DHT22;7873;52.230;12.856;2023-11-21T13:32:41;22.60;71.70
15543;DHT22;7873;52.230;12.856;2023-11-21T13:35:07;22.50;74.30
15543;DHT22;7873;52.230;12.856;2023-11-21T13:37:40;22.40;73.00
15543;DHT22;7873;52.230;12.856;2023-11-21T13:40:07;22.80;74.10
15543;DHT22;7873;52.230;12.856;2023-11-21T13:42:41;22.60;71.00
15543;DHT22;7873;52.230;12.856;2023-11-21T13:45:09;21.80;70.90
15543;DHT22;7873;52.230;12.856;2023-11-21T13:47:35;22.50;73.20
15543;DHT22;7873;52.230;12.856;2023-11-21T13:50:03;22.00;73.30
15543;DHT22;7873;52.230;12.856;2023-11-21T13:55:10;22.50;65.00
15543;DHT22;7873;52.230;12.856;2023-11-21T13:57:41;21.80;73.10
15543;DHT22;7873;52.230;12.856;2023-11-21T14:00:10;22.10;73.60
15543;DHT22;7873;52.230;12.856;2023-11-21T14:02:58;22.50;72.50
15543;DHT22;7873;52.230;12.856;2023-11-21T14:05:26;22.00;72.50
15543;DHT22;7873;52.230;12.856;2023-11-21T14:07:54;22.00;73.20
15543;DHT22;7873;52.230;12.856;2023-11-21T14:10:27;22.40;74.40
15543;DHT22;7873;52.230;12.856;2023-11-21T14:13:03;22.10;70.70
15543;DHT22;7873;52.230;12.856;2023-11-21T14:15:31;21.80;69.30
15543;DHT22;7873;52.230;12.856;2023-11-21T14:17:58;21.50;70.90
15543;DHT22;7873;52.230;12.856;2023-11-21T14:20:27;21.40;75.10
15543;DHT22;7873;52.230;12.856;2023-11-21T14:22:55;21.10;74.20
15543;DHT22;7873;52.230;12.856;2023-11-21T14:27:49;21.00;79.30
15543;DHT22;7873;52.230;12.856;2023-11-21T14:30:17;20.90;78.50
15543;DHT22;7873;52.230;12.856;2023-11-21T14:32:46;20.90;77.90
15543;DHT22;7873;52.230;12.856;2023-11-21T14:37:40;21.00;83.70
15543;DHT22;7873;52.230;12.856;2023-11-21T14:57:56;22.30;82.50
15543;DHT22;7873;52.230;12.856;2023-11-21T15:05:59;22.20;73.40
15543;DHT22;7873;52.230;12.856;2023-11-21T15:08:35;21.50;70.40
15543;DHT22;7873;52.230;12.856;2023-11-21T15:11:02;21.60;72.00
15543;DHT22;7873;52.230;12.856;2023-11-21T15:28:29;21.50;78.80
15543;DHT22;7873;52.230;12.856;2023-11-21T15:35:53;22.20;70.90
15543;DHT22;7873;52.230;12.856;2023-11-21T15:38:20;21.50;68.50
15543;DHT22;7873;52.230;12.856;2023-11-21T15:40:46;22.60;33.80
15543;DHT22;7873;52.230;12.856;2023-11-21T15:43:14;23.00;33.70
15543;DHT22;7873;52.230;12.856;2023-11-21T15:45:41;23.20;33.50
15543;DHT22;7873;52.230;12.856;2023-11-21T15:48:08;23.60;33.80
15543;DHT22;7873;52.230;12.856;2023-11-21T15:50:34;23.80;33.30
15543;DHT22;7873;52.230;12.856;2023-11-21T15:53:03;24.10;33.30
15543;DHT22;7873;52.230;12.856;2023-11-21T15:55:30;24.40;33.00
15543;DHT22;7873;52.230;12.856;2023-11-21T15:57:57;24.70;32.60
15543;DHT22;7873;52.230;12.856;2023-11-21T16:00:23;24.80;32.40
15543;DHT22;7873;52.230;12.856;2023-11-21T16:02:50;24.90;32.30
15543;DHT22;7873;52.230;12.856;2023-11-21T16:05:19;24.70;31.70
15543;DHT22;7873;52.230;12.856;2023-11-21T16:07:46;24.60;33.00
15543;DHT22;7873;52.230;12.856;2023-11-21T16:10:14;24.80;33.10
15543;DHT22;7873;52.230;12.856;2023-11-21T16:12:41;25.00;32.90
15543;DHT22;7873;52.230;12.856;2023-11-21T16:15:08;25.20;33.00
15543;DHT22;7873;52.230;12.856;2023-11-21T16:17:35;25.40;33.30
15543;DHT22;7873;52.230;12.856;2023-11-21T16:20:02;25.60;33.60
15543;DHT22;7873;52.230;12.856;2023-11-21T16:22:33;25.90;33.70
15543;DHT22;7873;52.230;12.856;2023-11-21T16:25:00;26.00;33.50
15543;DHT22;7873;52.230;12.856;2023-11-21T16:27:30;26.10;33.00
15543;DHT22;7873;52.230;12.856;2023-11-21T16:29:57;26.40;32.50